createdAt,value
2018-03-02T00:00:47.388Z,-1.51
2018-03-02T00:03:15.995Z,-1.41
2018-03-02T00:05:44.507Z,-1.33
2018-03-02T00:08:13.068Z,-1.57
2018-03-02T00:10:41.603Z,-1.23
2018-03-02T00:13:10.103Z,-1.33
2018-03-02T00:15:38.585Z,-1.16
2018-03-02T00:18:07.110Z,-1.27
2018-03-02T00:20:35.916Z,-1.73
2018-03-02T00:23:04.448Z,-1.90
2018-03-02T00:25:32.990Z,-2.02
2018-03-02T00:28:01.474Z,-2.35
2018-03-02T00:30:30.024Z,-2.24
2018-03-02T00:32:58.503Z,-2.44
2018-03-02T00:35:27.031Z,-2.29
2018-03-02T00:37:55.503Z,-2.12
2018-03-02T00:40:24.062Z,-2.04
2018-03-02T00:42:52.542Z,-2.43
2018-03-02T00:45:21.041Z,-2.61
2018-03-02T00:47:49.557Z,-2.71
2018-03-02T00:50:18.054Z,-2.50
2018-03-02T00:52:46.586Z,-2.46
2018-03-02T00:55:15.114Z,-2.51
2018-03-02T00:57:43.703Z,-2.63
2018-03-02T01:00:12.255Z,-2.49
2018-03-02T01:02:40.826Z,-2.30
2018-03-02T01:05:09.301Z,-2.51
2018-03-02T01:07:37.782Z,-2.46
2018-03-02T01:10:06.311Z,-2.21
2018-03-02T01:12:34.835Z,-2.54
2018-03-02T01:15:03.361Z,-2.84
2018-03-02T01:17:31.878Z,-2.55
2018-03-02T01:20:00.463Z,-2.58
2018-03-02T01:22:28.990Z,-2.70
2018-03-02T01:24:57.513Z,-2.72
2018-03-02T01:27:25.990Z,-2.42
2018-03-02T01:29:54.526Z,-2.36
2018-03-02T01:32:23.009Z,-2.23
2018-03-02T01:34:51.490Z,-2.35
2018-03-02T01:37:20.057Z,-2.40
2018-03-02T01:39:48.575Z,-2.42
2018-03-02T01:42:17.195Z,-2.38
2018-03-02T01:44:45.674Z,-2.34
2018-03-02T01:47:14.208Z,-2.37
2018-03-02T01:49:42.772Z,-2.28
2018-03-02T01:52:11.298Z,-2.25
2018-03-02T01:54:39.773Z,-2.12
2018-03-02T01:57:08.251Z,-2.28
2018-03-02T01:59:36.782Z,-2.56
2018-03-02T02:02:05.318Z,-2.61
2018-03-02T02:04:33.881Z,-2.45
2018-03-02T02:07:02.361Z,-2.33
2018-03-02T02:09:30.928Z,-2.53
2018-03-02T02:11:59.470Z,-2.59
2018-03-02T02:14:28.032Z,-2.29
2018-03-02T02:16:56.526Z,-2.12
2018-03-02T02:19:25.062Z,-2.66
2018-03-02T02:21:53.603Z,-2.34
2018-03-02T02:24:22.134Z,-2.42
2018-03-02T02:26:50.663Z,-2.35
2018-03-02T02:29:19.202Z,-2.31
2018-03-02T02:31:47.710Z,-2.41
2018-03-02T02:34:16.232Z,-2.35
2018-03-02T02:36:44.755Z,-2.17
2018-03-02T02:39:13.251Z,-2.06
2018-03-02T02:41:41.819Z,-2.02
2018-03-02T02:44:10.363Z,-2.08
2018-03-02T02:46:38.863Z,-2.03
2018-03-02T02:49:07.391Z,-1.98
2018-03-02T02:51:35.876Z,-1.96
2018-03-02T02:54:04.408Z,-1.79
2018-03-02T02:56:32.954Z,-1.83
2018-03-02T02:59:01.507Z,-1.94
2018-03-02T03:01:29.991Z,-1.78
2018-03-02T03:03:58.550Z,-1.83
2018-03-02T03:06:27.088Z,-1.78
2018-03-02T03:08:55.622Z,-1.75
2018-03-02T03:11:24.200Z,-1.97
2018-03-02T03:13:52.730Z,-1.85
2018-03-02T03:16:21.258Z,-2.08
2018-03-02T03:18:49.791Z,-1.94
2018-03-02T03:21:18.291Z,-2.12
2018-03-02T03:23:46.828Z,-1.98
2018-03-02T03:26:15.314Z,-2.20
2018-03-02T03:28:43.836Z,-2.09
2018-03-02T03:31:12.367Z,-2.18
2018-03-02T03:33:40.932Z,-2.12
2018-03-02T03:36:09.447Z,-2.13
2018-03-02T03:38:37.971Z,-2.44
2018-03-02T03:41:06.469Z,-2.41
2018-03-02T03:43:35.051Z,-2.21
2018-03-02T03:46:03.570Z,-2.09
2018-03-02T03:48:32.094Z,-2.33
2018-03-02T03:51:00.622Z,-2.58
2018-03-02T03:53:29.120Z,-2.30
2018-03-02T03:55:57.647Z,-2.20
2018-03-02T03:58:26.217Z,-2.38
2018-03-02T04:00:54.734Z,-2.12
2018-03-02T04:03:23.242Z,-2.00
2018-03-02T04:05:51.802Z,-1.99
2018-03-02T04:08:20.278Z,-2.17
2018-03-02T04:10:48.787Z,-1.95
2018-03-02T04:13:17.301Z,-1.93
2018-03-02T04:15:45.782Z,-1.70
2018-03-02T04:18:14.637Z,-1.76
2018-03-02T04:20:43.123Z,-1.65
2018-03-02T04:23:11.687Z,-1.71
2018-03-02T04:25:40.219Z,-1.75
2018-03-02T04:28:08.751Z,-1.94
2018-03-02T04:30:38.002Z,-1.69
2018-03-02T04:33:06.518Z,-1.54
2018-03-02T04:35:35.034Z,-1.39
2018-03-02T04:38:03.528Z,-1.53
2018-03-02T04:40:32.046Z,-1.49
2018-03-02T04:43:00.570Z,-1.44
2018-03-02T04:45:29.108Z,-1.49
2018-03-02T04:47:57.622Z,-1.31
2018-03-02T04:50:26.148Z,-1.19
2018-03-02T04:52:54.684Z,-1.16
2018-03-02T04:55:23.181Z,-1.13
2018-03-02T04:57:51.690Z,-1.02
2018-03-02T05:00:20.240Z,-0.94
2018-03-02T05:02:48.763Z,-0.93
2018-03-02T05:05:17.282Z,-0.69
2018-03-02T05:07:45.773Z,-0.75
2018-03-02T05:10:14.284Z,-0.80
2018-03-02T05:12:42.751Z,-0.65
2018-03-02T05:15:11.273Z,-0.53
2018-03-02T05:17:39.794Z,-0.42
2018-03-02T05:20:08.338Z,-0.40
2018-03-02T05:22:36.862Z,-0.27
2018-03-02T05:25:05.381Z,-0.38
2018-03-02T05:27:33.939Z,-0.44
2018-03-02T05:30:02.503Z,-0.33
2018-03-02T05:32:31.039Z,-0.33
2018-03-02T05:34:59.520Z,-0.48
2018-03-02T05:37:28.072Z,-0.36
2018-03-02T05:39:56.758Z,-0.39
2018-03-02T05:42:25.235Z,-0.29
2018-03-02T05:44:53.723Z,-0.28
2018-03-02T05:47:22.346Z,-0.27
2018-03-02T05:49:50.916Z,-0.32
2018-03-02T05:52:19.394Z,-0.38
2018-03-02T05:54:47.886Z,-0.36
2018-03-02T05:57:16.443Z,-0.11
2018-03-02T05:59:45.023Z,0.07
2018-03-02T06:02:13.674Z,0.05
2018-03-02T06:04:42.179Z,0.11
2018-03-02T06:07:10.686Z,0.11
2018-03-02T06:09:39.167Z,-0.01
2018-03-02T06:12:07.684Z,0.19
2018-03-02T06:14:36.238Z,0.39
2018-03-02T06:17:04.778Z,0.45
2018-03-02T06:19:33.296Z,0.49
2018-03-02T06:22:01.818Z,0.49
2018-03-02T06:24:30.338Z,0.69
2018-03-02T06:26:58.877Z,0.67
2018-03-02T06:29:27.357Z,0.63
2018-03-02T06:31:55.887Z,0.95
2018-03-02T06:34:24.458Z,1.03
2018-03-02T06:36:52.934Z,1.26
2018-03-02T06:39:21.482Z,1.55
2018-03-02T06:41:50.062Z,1.52
2018-03-02T06:44:18.582Z,1.76
2018-03-02T06:46:47.084Z,1.89
2018-03-02T06:49:15.726Z,1.91
2018-03-02T06:51:44.227Z,2.01
2018-03-02T06:54:12.782Z,1.94
2018-03-02T06:56:41.253Z,2.00
2018-03-02T06:59:09.751Z,1.79
2018-03-02T07:01:38.258Z,1.44
2018-03-02T07:04:06.805Z,1.66
2018-03-02T07:06:35.392Z,1.66
2018-03-02T07:09:04.005Z,1.85
2018-03-02T07:11:32.572Z,2.08
2018-03-02T07:14:01.085Z,1.92
2018-03-02T07:16:29.610Z,2.06
2018-03-02T07:18:58.110Z,2.18
2018-03-02T07:21:26.629Z,1.98
2018-03-02T07:23:55.267Z,2.08
2018-03-02T07:26:23.797Z,2.26
2018-03-02T07:28:52.333Z,2.39
2018-03-02T07:31:20.932Z,2.21
2018-03-02T07:33:49.409Z,2.19
2018-03-02T07:36:18.120Z,2.18
2018-03-02T07:38:46.592Z,1.71
2018-03-02T07:41:15.191Z,1.86
2018-03-02T07:43:43.663Z,2.02
2018-03-02T07:46:12.158Z,2.29
2018-03-02T07:48:40.661Z,2.27
2018-03-02T07:51:09.192Z,2.39
2018-03-02T07:53:37.668Z,2.38
2018-03-02T07:56:06.161Z,2.57
2018-03-02T07:58:34.715Z,2.43
2018-03-02T08:01:03.189Z,2.39
2018-03-02T08:03:31.743Z,2.32
2018-03-02T08:06:00.283Z,2.49
2018-03-02T08:08:28.878Z,2.66
2018-03-02T08:10:57.384Z,2.56
2018-03-02T08:13:25.912Z,2.53
2018-03-02T08:15:54.429Z,2.43
2018-03-02T08:18:22.926Z,2.56
2018-03-02T08:20:51.458Z,2.92
2018-03-02T08:23:19.994Z,2.63
2018-03-02T08:25:48.538Z,2.72
2018-03-02T08:28:17.048Z,3.10
2018-03-02T08:30:45.541Z,3.02
2018-03-02T08:33:14.059Z,3.09
2018-03-02T08:35:42.582Z,3.42
2018-03-02T08:38:11.166Z,3.24
2018-03-02T08:40:39.686Z,3.16
2018-03-02T08:43:08.225Z,3.30
2018-03-02T08:45:36.728Z,3.45
2018-03-02T08:48:05.292Z,3.66
2018-03-02T08:50:33.841Z,3.59
2018-03-02T08:53:02.370Z,3.07
2018-03-02T08:55:30.887Z,3.43
2018-03-02T08:57:59.389Z,3.67
2018-03-02T09:00:27.916Z,3.46
2018-03-02T09:02:56.472Z,3.85
2018-03-02T09:05:24.993Z,3.88
2018-03-02T09:07:53.518Z,3.97
2018-03-02T09:10:22.022Z,4.14
2018-03-02T09:12:50.555Z,4.19
2018-03-02T09:15:19.059Z,4.01
2018-03-02T09:17:47.565Z,3.89
2018-03-02T09:20:16.078Z,3.83
2018-03-02T09:22:44.614Z,3.96
2018-03-02T09:25:13.109Z,4.09
2018-03-02T09:27:41.575Z,3.68
2018-03-02T09:30:10.119Z,4.00
2018-03-02T09:32:38.650Z,4.51
2018-03-02T09:35:07.187Z,4.40
2018-03-02T09:37:35.664Z,4.76
2018-03-02T09:40:04.227Z,4.62
2018-03-02T09:42:32.768Z,4.72
2018-03-02T09:45:01.256Z,4.83
2018-03-02T09:47:29.835Z,4.86
2018-03-02T09:49:58.306Z,4.22
2018-03-02T09:52:26.783Z,4.41
2018-03-02T09:54:55.291Z,4.65
2018-03-02T09:57:23.799Z,4.99
2018-03-02T09:59:52.309Z,4.70
2018-03-02T10:02:20.850Z,5.17
2018-03-02T10:04:49.345Z,4.78
2018-03-02T10:07:17.887Z,4.45
2018-03-02T10:09:46.356Z,4.98
2018-03-02T10:12:14.851Z,5.03
2018-03-02T10:14:43.325Z,5.02
2018-03-02T10:17:11.833Z,4.58
2018-03-02T10:19:40.355Z,4.67
2018-03-02T10:22:08.875Z,5.09
2018-03-02T10:24:37.359Z,5.46
2018-03-02T10:27:05.831Z,5.43
2018-03-02T10:29:34.360Z,4.80
2018-03-02T10:32:02.866Z,5.39
2018-03-02T10:34:31.414Z,5.20
2018-03-02T10:36:59.914Z,5.10
2018-03-02T10:39:28.398Z,5.16
2018-03-02T10:41:56.938Z,5.48
2018-03-02T10:44:25.466Z,5.44
2018-03-02T10:46:53.926Z,5.79
2018-03-02T10:49:22.383Z,5.42
2018-03-02T10:51:51.006Z,5.28
2018-03-02T10:54:19.616Z,5.37
2018-03-02T10:56:48.093Z,5.18
2018-03-02T10:59:16.638Z,5.03
2018-03-02T11:01:50.638Z,5.32
2018-03-02T11:04:19.115Z,4.46
2018-03-02T11:06:47.650Z,4.65
2018-03-02T11:09:16.178Z,4.91
2018-03-02T11:11:44.691Z,5.15
2018-03-02T11:14:13.319Z,4.70
2018-03-02T11:16:41.767Z,4.85
2018-03-02T11:19:10.281Z,4.40
2018-03-02T11:21:38.746Z,4.73
2018-03-02T11:24:07.246Z,4.92
2018-03-02T11:26:35.733Z,4.75
2018-03-02T11:29:04.244Z,4.87
2018-03-02T11:31:32.785Z,4.94
2018-03-02T11:34:01.243Z,4.31
2018-03-02T11:36:29.773Z,4.62
2018-03-02T11:38:58.284Z,4.70
2018-03-02T11:41:26.795Z,4.87
2018-03-02T11:43:55.306Z,4.83
2018-03-02T11:46:23.809Z,5.04
2018-03-02T11:48:52.341Z,4.78
2018-03-02T11:51:20.844Z,5.07
2018-03-02T11:53:49.382Z,4.83
2018-03-02T11:56:17.886Z,4.99
2018-03-02T11:58:46.355Z,4.80
2018-03-02T12:01:14.888Z,4.55
2018-03-02T12:03:43.431Z,4.97
2018-03-02T12:06:11.955Z,4.50
2018-03-02T12:08:40.503Z,4.78
2018-03-02T12:11:09.032Z,4.67
2018-03-02T12:13:37.572Z,5.16
2018-03-02T12:16:06.058Z,4.86
2018-03-02T12:18:34.504Z,5.16
2018-03-02T12:21:03.000Z,5.37
2018-03-02T12:23:31.545Z,5.59
2018-03-02T12:26:00.024Z,5.35
2018-03-02T12:28:28.593Z,5.56
2018-03-02T12:30:57.104Z,5.44
2018-03-02T12:35:48.826Z,5.62
2018-03-02T12:38:17.307Z,5.68
2018-03-02T12:40:45.902Z,5.97
2018-03-02T12:43:14.534Z,5.42
2018-03-02T12:45:42.999Z,6.18
2018-03-02T12:48:11.455Z,6.22
2018-03-02T12:50:40.131Z,6.03
2018-03-02T12:53:08.610Z,5.94
2018-03-02T12:55:37.102Z,5.87
2018-03-02T12:58:05.561Z,6.27
2018-03-02T13:00:34.105Z,6.68
2018-03-02T13:03:02.672Z,6.67
2018-03-02T13:05:31.146Z,6.13
2018-03-02T13:07:59.711Z,6.67
2018-03-02T13:10:28.214Z,6.18
2018-03-02T13:12:56.730Z,6.50
2018-03-02T13:15:25.199Z,6.67
2018-03-02T13:17:53.697Z,6.53
2018-03-02T13:20:22.234Z,6.67
2018-03-02T13:22:50.742Z,6.71
2018-03-02T13:25:19.275Z,6.77
2018-03-02T13:27:59.426Z,7.09
2018-03-02T13:30:27.917Z,6.32
2018-03-02T13:33:07.998Z,6.60
2018-03-02T13:35:36.577Z,6.68
2018-03-02T13:38:05.078Z,6.93
2018-03-02T13:40:45.242Z,6.95
2018-03-02T13:43:13.699Z,7.00
2018-03-02T13:45:42.228Z,6.72
2018-03-02T13:51:10.414Z,6.81
2018-03-02T13:53:39.034Z,6.47
2018-03-02T13:56:07.630Z,6.58
2018-03-02T13:58:36.078Z,6.69
2018-03-02T14:01:04.697Z,6.24
2018-03-02T14:03:44.799Z,6.31
2018-03-02T14:06:13.289Z,6.23
2018-03-02T14:08:41.801Z,6.34
2018-03-02T14:11:10.302Z,6.08
2018-03-02T14:13:38.802Z,6.27
2018-03-02T14:16:07.370Z,6.34
2018-03-02T14:18:35.858Z,6.32
2018-03-02T14:21:04.389Z,6.37
2018-03-02T14:23:32.923Z,6.16
2018-03-02T14:26:01.452Z,6.07
2018-03-02T14:28:29.977Z,6.21
2018-03-02T14:30:58.519Z,6.14
2018-03-02T14:33:27.044Z,6.12
2018-03-02T14:35:55.594Z,6.15
2018-03-02T14:38:24.056Z,6.08
2018-03-02T14:40:52.598Z,6.17
2018-03-02T14:43:21.130Z,6.08
2018-03-02T14:45:49.730Z,5.99
2018-03-02T14:48:18.252Z,5.90
2018-03-02T14:50:46.722Z,5.49
2018-03-02T14:53:15.267Z,5.84
2018-03-02T14:55:43.750Z,5.87
2018-03-02T14:58:12.259Z,5.94
2018-03-02T15:00:40.798Z,5.81
2018-03-02T15:03:09.360Z,5.63
2018-03-02T15:05:38.615Z,5.63
2018-03-02T15:08:07.116Z,5.69
2018-03-02T15:10:35.618Z,5.63
2018-03-02T15:13:04.102Z,5.64
2018-03-02T15:15:32.610Z,5.33
2018-03-02T15:18:01.094Z,5.50
2018-03-02T15:20:29.631Z,5.45
2018-03-02T15:22:58.155Z,5.14
2018-03-02T15:25:26.674Z,5.36
2018-03-02T15:27:55.150Z,5.23
2018-03-02T15:30:23.663Z,5.05
2018-03-02T15:32:52.246Z,5.28
2018-03-02T15:35:20.702Z,5.31
2018-03-02T15:37:49.179Z,4.99
2018-03-02T15:40:17.685Z,5.06
2018-03-02T15:42:46.224Z,5.21
2018-03-02T15:45:14.722Z,5.22
2018-03-02T15:47:43.303Z,5.06
2018-03-02T15:50:11.839Z,5.04
2018-03-02T15:52:40.326Z,5.04
2018-03-02T15:55:08.828Z,5.07
2018-03-02T15:57:37.315Z,4.96
2018-03-02T16:00:05.817Z,4.94
2018-03-02T16:02:34.350Z,4.97
2018-03-02T16:05:02.882Z,4.79
2018-03-02T16:07:31.385Z,4.83
2018-03-02T16:09:59.862Z,4.60
2018-03-02T16:12:28.321Z,4.55
2018-03-02T16:14:56.886Z,4.58
2018-03-02T16:17:25.358Z,4.56
2018-03-02T16:19:53.869Z,4.41
2018-03-02T16:22:22.348Z,4.22
2018-03-02T16:24:50.854Z,4.28
2018-03-02T16:27:19.343Z,4.07
2018-03-02T16:29:47.830Z,3.97
2018-03-02T16:32:16.290Z,4.01
2018-03-02T16:34:44.950Z,4.05
2018-03-02T16:37:13.422Z,4.07
2018-03-02T16:39:41.922Z,3.99
2018-03-02T16:42:10.399Z,3.93
2018-03-02T16:44:38.908Z,3.66
2018-03-02T16:47:07.402Z,3.74
2018-03-02T16:49:35.898Z,3.68
2018-03-02T16:52:04.459Z,3.81
2018-03-02T16:54:32.919Z,3.71
2018-03-02T16:57:01.422Z,3.65
2018-03-02T16:59:29.892Z,3.76
2018-03-02T17:01:58.422Z,3.53
2018-03-02T17:04:26.883Z,3.61
2018-03-02T17:06:55.426Z,3.66
2018-03-02T17:09:23.926Z,3.76
2018-03-02T17:11:52.438Z,3.70
2018-03-02T17:14:20.926Z,3.68
2018-03-02T17:16:49.431Z,3.72
2018-03-02T17:19:17.927Z,3.73
2018-03-02T17:21:46.386Z,3.66
2018-03-02T17:24:14.882Z,3.46
2018-03-02T17:26:43.378Z,3.47
2018-03-02T17:29:11.875Z,3.50
2018-03-02T17:31:40.370Z,3.39
2018-03-02T17:34:08.910Z,3.25
2018-03-02T17:36:37.397Z,3.10
2018-03-02T17:39:05.859Z,3.31
2018-03-02T17:41:34.318Z,3.25
2018-03-02T17:44:02.800Z,3.34
2018-03-02T17:46:31.290Z,3.24
2018-03-02T17:48:59.767Z,3.19
2018-03-02T17:51:28.280Z,3.20
2018-03-02T17:53:56.742Z,3.30
2018-03-02T17:56:25.280Z,3.31
2018-03-02T17:58:53.814Z,3.24
2018-03-02T18:01:22.381Z,3.21
2018-03-02T18:03:50.846Z,3.18
2018-03-02T18:06:19.550Z,3.09
2018-03-02T18:08:48.093Z,3.02
2018-03-02T18:11:16.601Z,3.05
2018-03-02T18:13:45.079Z,3.02
2018-03-02T18:16:13.534Z,3.18
2018-03-02T18:18:42.029Z,3.13
2018-03-02T18:21:10.486Z,3.24
2018-03-02T18:23:38.986Z,3.27
2018-03-02T18:26:07.474Z,3.30
2018-03-02T18:28:36.032Z,3.25
2018-03-02T18:31:04.530Z,3.29
2018-03-02T18:33:33.022Z,3.29
2018-03-02T18:36:01.482Z,3.30
2018-03-02T18:38:30.032Z,3.42
2018-03-02T18:40:58.514Z,3.47
2018-03-02T18:43:26.974Z,3.54
2018-03-02T18:45:55.469Z,3.50
2018-03-02T18:48:23.977Z,2.90
2018-03-02T18:50:52.451Z,3.24
2018-03-02T18:53:20.914Z,3.12
2018-03-02T18:55:49.416Z,2.96
2018-03-02T18:58:17.884Z,2.82
2018-03-02T19:00:46.386Z,3.07
2018-03-02T19:03:14.857Z,3.08
2018-03-02T19:05:43.318Z,3.10
2018-03-02T19:08:11.821Z,3.06
2018-03-02T19:10:40.294Z,3.20
2018-03-02T19:13:08.814Z,2.94
2018-03-02T19:15:37.802Z,3.03
2018-03-02T19:18:06.308Z,3.15
2018-03-02T19:20:34.850Z,3.31
2018-03-02T19:23:03.414Z,3.41
2018-03-02T19:25:31.874Z,3.29
2018-03-02T19:28:00.320Z,3.29
2018-03-02T19:30:28.860Z,3.29
2018-03-02T19:32:57.363Z,3.32
2018-03-02T19:35:25.826Z,3.36
2018-03-02T19:37:54.338Z,3.41
2018-03-02T19:40:22.819Z,3.18
2018-03-02T19:42:51.327Z,3.36
2018-03-02T19:45:19.884Z,3.44
2018-03-02T19:47:48.360Z,3.38
2018-03-02T19:50:16.866Z,3.35
2018-03-02T19:52:45.335Z,3.09
2018-03-02T19:55:13.826Z,3.11
2018-03-02T19:57:42.358Z,3.12
2018-03-02T20:00:10.838Z,3.17
2018-03-02T20:02:39.315Z,3.10
2018-03-02T20:05:07.822Z,2.73
2018-03-02T20:07:36.330Z,2.83
2018-03-02T20:10:04.809Z,2.97
2018-03-02T20:12:33.291Z,2.97
2018-03-02T20:15:01.795Z,2.98
2018-03-02T20:17:30.299Z,3.01
2018-03-02T20:19:58.765Z,2.94
2018-03-02T20:22:27.306Z,2.93
2018-03-02T20:24:55.786Z,2.79
2018-03-02T20:27:24.246Z,2.81
2018-03-02T20:29:52.782Z,2.79
2018-03-02T20:32:21.267Z,2.76
2018-03-02T20:34:49.784Z,2.72
2018-03-02T20:37:18.255Z,2.72
2018-03-02T20:39:46.801Z,2.64
2018-03-02T20:42:15.431Z,2.58
2018-03-02T20:44:43.934Z,2.50
2018-03-02T20:47:12.398Z,2.32
2018-03-02T20:49:40.950Z,2.38
2018-03-02T20:52:09.465Z,1.84
2018-03-02T20:54:38.005Z,1.95
2018-03-02T20:57:06.546Z,2.13
2018-03-02T20:59:35.115Z,2.14
2018-03-02T21:02:03.588Z,2.19
2018-03-02T21:04:32.157Z,2.16
2018-03-02T21:07:00.635Z,2.06
2018-03-02T21:09:29.104Z,1.86
2018-03-02T21:11:57.606Z,1.84
2018-03-02T21:14:26.113Z,1.93
2018-03-02T21:16:54.582Z,1.86
2018-03-02T21:19:23.090Z,1.93
2018-03-02T21:21:51.595Z,1.80
2018-03-02T21:24:20.056Z,1.82
2018-03-02T21:26:48.559Z,1.81
2018-03-02T21:29:17.023Z,1.82
2018-03-02T21:31:45.527Z,1.78
2018-03-02T21:34:18.975Z,1.72
2018-03-02T21:36:42.552Z,1.83
2018-03-02T21:39:12.138Z,1.40
2018-03-02T21:41:39.534Z,1.65
2018-03-02T21:44:08.049Z,1.77
2018-03-02T21:46:36.506Z,1.67
2018-03-02T21:49:04.995Z,1.33
2018-03-02T21:51:33.501Z,1.41
2018-03-02T21:54:01.962Z,1.62
2018-03-02T21:56:30.484Z,1.69
2018-03-02T21:58:58.987Z,1.80
2018-03-02T22:01:27.450Z,1.80
2018-03-02T22:03:56.014Z,1.60
2018-03-02T22:06:24.482Z,1.54
2018-03-02T22:08:52.945Z,1.67
2018-03-02T22:11:21.467Z,1.79
2018-03-02T22:13:49.976Z,1.91
2018-03-02T22:16:18.501Z,1.95
2018-03-02T22:18:46.970Z,2.05
2018-03-02T22:21:15.479Z,2.05
2018-03-02T22:23:43.947Z,2.14
2018-03-02T22:26:12.446Z,1.68
2018-03-02T22:28:40.982Z,1.90
2018-03-02T22:31:09.489Z,2.04
2018-03-02T22:33:38.003Z,1.94
2018-03-02T22:36:06.510Z,2.11
2018-03-02T22:38:34.989Z,2.11
2018-03-02T22:41:03.462Z,2.14
2018-03-02T22:43:31.966Z,2.13
2018-03-02T22:46:00.445Z,2.05
2018-03-02T22:48:28.954Z,2.11
2018-03-02T22:50:57.458Z,2.21
2018-03-02T22:53:25.921Z,2.12
2018-03-02T22:55:54.430Z,2.12
2018-03-02T22:58:22.897Z,1.29
2018-03-02T23:00:51.407Z,1.71
2018-03-02T23:03:19.870Z,1.73
2018-03-02T23:05:48.361Z,1.90
2018-03-02T23:08:16.851Z,2.01
2018-03-02T23:10:45.325Z,2.06
2018-03-02T23:13:13.819Z,2.05
2018-03-02T23:15:42.300Z,2.02
2018-03-02T23:18:10.818Z,1.96
2018-03-02T23:20:39.302Z,1.96
2018-03-02T23:23:07.802Z,1.73
2018-03-02T23:25:36.298Z,1.75
2018-03-02T23:28:04.804Z,1.79
2018-03-02T23:30:33.290Z,1.67
2018-03-02T23:33:01.814Z,1.68
2018-03-02T23:35:30.261Z,1.85
2018-03-02T23:37:59.709Z,1.86
2018-03-02T23:40:28.187Z,1.85
2018-03-02T23:42:56.683Z,1.48
2018-03-02T23:45:25.145Z,1.64
2018-03-02T23:47:53.633Z,1.51
2018-03-02T23:50:22.098Z,1.65
2018-03-02T23:52:50.612Z,1.64
2018-03-02T23:55:19.103Z,1.68
2018-03-02T23:57:47.635Z,1.39
